sensor_id;sensor_type;location;lat;lon;timestamp;pressure;altitude;pressure_sealevel;temperature;humidity
58979;BME280;44763;50.464;30.612;2022-08-23T00:01:32;100115.55;;;21.16;56.87
58979;BME280;44763;50.464;30.612;2022-08-23T00:04:03;100119.91;;;21.17;56.71
58979;BME280;44763;50.464;30.612;2022-08-23T00:06:31;100119.06;;;21.17;55.76
58979;BME280;44763;50.464;30.612;2022-08-23T00:08:58;100117.45;;;21.18;56.04
58979;BME280;44763;50.464;30.612;2022-08-23T00:11:29;100118.84;;;21.21;55.78
58979;BME280;44763;50.464;30.612;2022-08-23T00:14:00;100123.16;;;21.22;55.75
58979;BME280;44763;50.464;30.612;2022-08-23T00:16:33;100120.97;;;21.16;55.35
58979;BME280;44763;50.464;30.612;2022-08-23T00:19:02;100123.97;;;21.17;55.40
58979;BME280;44763;50.464;30.612;2022-08-23T00:21:29;100126.94;;;21.18;55.40
58979;BME280;44763;50.464;30.612;2022-08-23T00:23:56;100121.52;;;21.18;55.32
58979;BME280;44763;50.464;30.612;2022-08-23T00:26:23;100126.94;;;21.18;55.40
58979;BME280;44763;50.464;30.612;2022-08-23T00:28:50;100125.03;;;21.19;55.32
58979;BME280;44763;50.464;30.612;2022-08-23T00:31:17;100131.30;;;21.19;55.17
58979;BME280;44763;50.464;30.612;2022-08-23T00:33:44;100133.16;;;21.19;55.05
58979;BME280;44763;50.464;30.612;2022-08-23T00:36:10;100136.42;;;21.18;55.06
58979;BME280;44763;50.464;30.612;2022-08-23T00:38:36;100137.78;;;21.16;56.77
58979;BME280;44763;50.464;30.612;2022-08-23T00:41:03;100135.00;;;21.06;57.08
58979;BME280;44763;50.464;30.612;2022-08-23T00:43:36;100137.16;;;21.01;56.77
58979;BME280;44763;50.464;30.612;2022-08-23T00:46:34;100133.61;;;20.98;56.02
58979;BME280;44763;50.464;30.612;2022-08-23T00:49:21;100134.70;;;20.97;55.61
58979;BME280;44763;50.464;30.612;2022-08-23T00:51:55;100100.38;;;20.65;55.45
58979;BME280;44763;50.464;30.612;2022-08-23T00:54:25;100144.95;;;20.92;55.48
58979;BME280;44763;50.464;30.612;2022-08-23T00:56:58;100145.50;;;20.92;55.53
58979;BME280;44763;50.464;30.612;2022-08-23T00:59:27;100146.30;;;20.92;55.40
58979;BME280;44763;50.464;30.612;2022-08-23T01:01:53;100139.27;;;20.91;55.40
58979;BME280;44763;50.464;30.612;2022-08-23T01:04:20;100144.40;;;20.90;55.32
58979;BME280;44763;50.464;30.612;2022-08-23T01:06:50;100149.27;;;20.88;55.26
58979;BME280;44763;50.464;30.612;2022-08-23T01:09:20;100147.91;;;20.86;55.21
58979;BME280;44763;50.464;30.612;2022-08-23T01:11:59;100148.42;;;20.83;54.95
58979;BME280;44763;50.464;30.612;2022-08-23T01:14:39;100148.41;;;20.80;54.98
58979;BME280;44763;50.464;30.612;2022-08-23T01:17:51;100143.76;;;20.75;54.94
58979;BME280;44763;50.464;30.612;2022-08-23T01:20:02;100142.39;;;20.70;54.99
58979;BME280;44763;50.464;30.612;2022-08-23T01:22:44;100152.09;;;20.66;54.97
58979;BME280;44763;50.464;30.612;2022-08-23T01:25:31;100143.15;;;20.63;54.98
58979;BME280;44763;50.464;30.612;2022-08-23T01:27:58;100147.94;;;20.58;54.87
58979;BME280;44763;50.464;30.612;2022-08-23T01:30:29;100143.87;;;20.56;54.83
58979;BME280;44763;50.464;30.612;2022-08-23T01:33:01;100144.67;;;20.54;54.88
58979;BME280;44763;50.464;30.612;2022-08-23T01:35:42;100144.66;;;20.51;54.93
58979;BME280;44763;50.464;30.612;2022-08-23T01:38:12;100150.04;;;20.49;54.68
58979;BME280;44763;50.464;30.612;2022-08-23T01:40:41;100150.04;;;20.49;54.58
58979;BME280;44763;50.464;30.612;2022-08-23T01:43:11;100146.52;;;20.48;54.68
58979;BME280;44763;50.464;30.612;2022-08-23T01:45:41;100153.00;;;20.47;54.46
58979;BME280;44763;50.464;30.612;2022-08-23T01:48:08;100151.12;;;20.48;54.54
58979;BME280;44763;50.464;30.612;2022-08-23T01:50:35;100104.58;;;20.16;54.47
58979;BME280;44763;50.464;30.612;2022-08-23T01:53:01;100164.66;;;20.48;54.47
58979;BME280;44763;50.464;30.612;2022-08-23T01:55:29;100160.87;;;20.49;54.38
58979;BME280;44763;50.464;30.612;2022-08-23T01:57:59;100157.89;;;20.48;54.47
58979;BME280;44763;50.464;30.612;2022-08-23T02:00:29;100158.16;;;20.49;54.45
58979;BME280;44763;50.464;30.612;2022-08-23T02:02:58;100158.72;;;20.51;54.39
58979;BME280;44763;50.464;30.612;2022-08-23T02:05:26;100156.00;;;20.51;54.90
58979;BME280;44763;50.464;30.612;2022-08-23T02:07:53;100163.32;;;20.50;54.56
58979;BME280;44763;50.464;30.612;2022-08-23T02:10:21;100163.03;;;20.49;54.24
58979;BME280;44763;50.464;30.612;2022-08-23T02:12:48;100169.28;;;20.50;54.16
58979;BME280;44763;50.464;30.612;2022-08-23T02:15:16;100163.31;;;20.48;53.96
58979;BME280;44763;50.464;30.612;2022-08-23T02:17:45;100165.18;;;20.47;53.92
58979;BME280;44763;50.464;30.612;2022-08-23T02:20:12;100163.01;;;20.44;53.84
58979;BME280;44763;50.464;30.612;2022-08-23T02:22:39;100163.27;;;20.42;53.66
58979;BME280;44763;50.464;30.612;2022-08-23T02:25:05;100165.95;;;20.40;53.69
58979;BME280;44763;50.464;30.612;2022-08-23T02:27:33;100177.55;;;20.38;53.73
58979;BME280;44763;50.464;30.612;2022-08-23T02:29:59;100180.75;;;20.32;53.90
58979;BME280;44763;50.464;30.612;2022-08-23T02:32:26;100182.10;;;20.32;53.68
58979;BME280;44763;50.464;30.612;2022-08-23T02:34:54;100176.69;;;20.32;53.75
58979;BME280;44763;50.464;30.612;2022-08-23T02:37:21;100176.17;;;20.33;53.68
58979;BME280;44763;50.464;30.612;2022-08-23T02:39:47;100172.36;;;20.31;53.54
58979;BME280;44763;50.464;30.612;2022-08-23T02:42:13;100176.17;;;20.33;53.58
58979;BME280;44763;50.464;30.612;2022-08-23T02:44:41;100183.69;;;20.28;53.62
58979;BME280;44763;50.464;30.612;2022-08-23T02:47:08;100181.78;;;20.26;53.57
58979;BME280;44763;50.464;30.612;2022-08-23T02:49:36;100181.78;;;20.26;53.41
58979;BME280;44763;50.464;30.612;2022-08-23T02:52:03;100178.53;;;20.27;53.42
58979;BME280;44763;50.464;30.612;2022-08-23T02:54:32;100179.37;;;20.27;53.35
58979;BME280;44763;50.464;30.612;2022-08-23T02:56:59;100189.08;;;20.23;53.46
58979;BME280;44763;50.464;30.612;2022-08-23T02:59:25;100195.84;;;20.23;53.33
58979;BME280;44763;50.464;30.612;2022-08-23T03:01:52;100193.70;;;20.25;53.24
58979;BME280;44763;50.464;30.612;2022-08-23T03:04:20;100193.39;;;20.21;53.25
58979;BME280;44763;50.464;30.612;2022-08-23T03:06:47;100190.95;;;20.22;53.24
58979;BME280;44763;50.464;30.612;2022-08-23T03:09:13;100196.11;;;20.24;53.15
58979;BME280;44763;50.464;30.612;2022-08-23T03:11:42;100194.75;;;20.24;53.13
58979;BME280;44763;50.464;30.612;2022-08-23T03:14:12;100195.05;;;20.25;53.12
58979;BME280;44763;50.464;30.612;2022-08-23T03:16:40;100198.75;;;20.19;53.22
58979;BME280;44763;50.464;30.612;2022-08-23T03:19:07;100203.11;;;20.20;53.13
58979;BME280;44763;50.464;30.612;2022-08-23T03:21:34;100204.73;;;20.21;53.18
58979;BME280;44763;50.464;30.612;2022-08-23T03:24:02;100206.92;;;20.21;53.14
58979;BME280;44763;50.464;30.612;2022-08-23T03:26:30;100216.66;;;20.22;53.05
58979;BME280;44763;50.464;30.612;2022-08-23T03:28:56;100218.56;;;20.25;52.94
58979;BME280;44763;50.464;30.612;2022-08-23T03:31:24;100208.84;;;20.26;52.88
58979;BME280;44763;50.464;30.612;2022-08-23T03:34:02;100203.99;;;20.28;52.89
58979;BME280;44763;50.464;30.612;2022-08-23T03:36:29;100216.73;;;20.30;52.78
58979;BME280;44763;50.464;30.612;2022-08-23T03:38:57;100217.29;;;20.32;52.71
58979;BME280;44763;50.464;30.612;2022-08-23T03:41:25;100220.03;;;20.35;52.66
58979;BME280;44763;50.464;30.612;2022-08-23T03:43:51;100221.16;;;20.39;52.61
58979;BME280;44763;50.464;30.612;2022-08-23T03:46:18;100224.73;;;20.45;52.47
58979;BME280;44763;50.464;30.612;2022-08-23T03:48:51;100222.88;;;20.48;52.41
58979;BME280;44763;50.464;30.612;2022-08-23T03:51:23;100222.33;;;20.48;52.36
58979;BME280;44763;50.464;30.612;2022-08-23T03:53:50;100230.20;;;20.52;52.03
58979;BME280;44763;50.464;30.612;2022-08-23T03:56:25;100189.36;;;20.27;51.91
58979;BME280;44763;50.464;30.612;2022-08-23T03:58:53;100240.09;;;20.64;51.54
58979;BME280;44763;50.464;30.612;2022-08-23T04:01:20;100239.09;;;20.72;51.26
58979;BME280;44763;50.464;30.612;2022-08-23T04:03:46;100234.28;;;20.79;51.21
58979;BME280;44763;50.464;30.612;2022-08-23T04:06:14;100245.19;;;20.90;51.20
58979;BME280;44763;50.464;30.612;2022-08-23T04:08:44;100250.11;;;20.98;50.95
58979;BME280;44763;50.464;30.612;2022-08-23T04:11:11;100249.36;;;21.05;50.62
58979;BME280;44763;50.464;30.612;2022-08-23T04:13:41;100251.86;;;21.14;50.48
58979;BME280;44763;50.464;30.612;2022-08-23T04:16:09;100252.20;;;21.26;50.20
58979;BME280;44763;50.464;30.612;2022-08-23T04:18:36;100250.64;;;21.37;49.64
58979;BME280;44763;50.464;30.612;2022-08-23T04:21:07;100246.13;;;21.48;49.19
58979;BME280;44763;50.464;30.612;2022-08-23T04:23:37;100253.79;;;21.59;49.17
58979;BME280;44763;50.464;30.612;2022-08-23T04:26:05;100264.38;;;21.66;48.80
58979;BME280;44763;50.464;30.612;2022-08-23T04:28:33;100255.73;;;21.69;48.62
58979;BME280;44763;50.464;30.612;2022-08-23T04:31:00;100259.25;;;21.69;48.62
58979;BME280;44763;50.464;30.612;2022-08-23T04:33:29;100254.92;;;21.68;48.42
58979;BME280;44763;50.464;30.612;2022-08-23T04:36:00;100259.25;;;21.69;48.49
58979;BME280;44763;50.464;30.612;2022-08-23T04:38:27;100264.42;;;21.71;48.40
58979;BME280;44763;50.464;30.612;2022-08-23T04:40:56;100264.42;;;21.71;48.21
58979;BME280;44763;50.464;30.612;2022-08-23T04:43:42;100258.99;;;21.71;48.15
58979;BME280;44763;50.464;30.612;2022-08-23T04:46:11;100263.06;;;21.73;48.35
58979;BME280;44763;50.464;30.612;2022-08-23T04:48:45;100265.81;;;21.78;48.30
58979;BME280;44763;50.464;30.612;2022-08-23T04:51:09;100268.29;;;21.88;48.14
58979;BME280;44763;50.464;30.612;2022-08-23T04:53:38;100266.18;;;22.00;47.76
58979;BME280;44763;50.464;30.612;2022-08-23T04:56:09;100267.58;;;22.15;47.26
58979;BME280;44763;50.464;30.612;2022-08-23T04:58:36;100276.62;;;22.37;46.78
58979;BME280;44763;50.464;30.612;2022-08-23T05:01:06;100265.50;;;22.56;46.50
58979;BME280;44763;50.464;30.612;2022-08-23T05:03:34;100269.34;;;22.78;46.10
58979;BME280;44763;50.464;30.612;2022-08-23T05:06:01;100264.99;;;23.00;45.59
58979;BME280;44763;50.464;30.612;2022-08-23T05:08:32;100268.80;;;23.25;45.18
58979;BME280;44763;50.464;30.612;2022-08-23T05:11:05;100274.47;;;23.49;44.55
58979;BME280;44763;50.464;30.612;2022-08-23T05:15:16;100262.70;;;23.79;43.56
58979;BME280;44763;50.464;30.612;2022-08-23T05:17:46;100265.42;;;23.79;43.55
58979;BME280;44763;50.464;30.612;2022-08-23T05:20:13;100275.96;;;23.96;43.47
58979;BME280;44763;50.464;30.612;2022-08-23T05:22:40;100277.47;;;24.18;42.80
58979;BME280;44763;50.464;30.612;2022-08-23T05:25:28;100268.70;;;24.26;42.17
58979;BME280;44763;50.464;30.612;2022-08-23T05:27:57;100287.24;;;24.26;42.32
58979;BME280;44763;50.464;30.612;2022-08-23T05:30:23;100281.22;;;24.29;42.55
58979;BME280;44763;50.464;30.612;2022-08-23T05:32:49;100289.62;;;24.38;42.04
58979;BME280;44763;50.464;30.612;2022-08-23T05:35:19;100284.70;;;24.40;42.04
58979;BME280;44763;50.464;30.612;2022-08-23T05:37:51;100287.68;;;24.44;41.77
58979;BME280;44763;50.464;30.612;2022-08-23T05:40:17;100282.20;;;24.46;41.43
58979;BME280;44763;50.464;30.612;2022-08-23T05:42:45;100289.31;;;24.42;41.85
58979;BME280;44763;50.464;30.612;2022-08-23T05:45:12;100268.50;;;24.17;41.93
58979;BME280;44763;50.464;30.612;2022-08-23T05:47:38;100295.30;;;24.47;41.75
58979;BME280;44763;50.464;30.612;2022-08-23T05:50:18;100293.38;;;24.47;41.89
58979;BME280;44763;50.464;30.612;2022-08-23T05:52:45;100303.45;;;24.55;41.53
58979;BME280;44763;50.464;30.612;2022-08-23T05:55:12;100297.08;;;24.70;41.26
58979;BME280;44763;50.464;30.612;2022-08-23T05:57:40;100305.67;;;24.84;41.04
58979;BME280;44763;50.464;30.612;2022-08-23T06:00:09;100292.47;;;24.99;40.45
58979;BME280;44763;50.464;30.612;2022-08-23T06:02:41;100311.95;;;24.85;40.54
58979;BME280;44763;50.464;30.612;2022-08-23T06:05:08;100311.19;;;24.79;40.77
58979;BME280;44763;50.464;30.612;2022-08-23T06:07:41;100302.32;;;24.95;40.61
58979;BME280;44763;50.464;30.612;2022-08-23T06:10:08;100317.36;;;25.22;40.23
58979;BME280;44763;50.464;30.612;2022-08-23T06:12:36;100311.25;;;25.38;39.52
58979;BME280;44763;50.464;30.612;2022-08-23T06:15:03;100311.61;;;25.55;39.33
58979;BME280;44763;50.464;30.612;2022-08-23T06:17:30;100308.63;;;25.78;38.34
58979;BME280;44763;50.464;30.612;2022-08-23T06:19:57;100310.57;;;26.02;38.30
58979;BME280;44763;50.464;30.612;2022-08-23T06:22:25;100317.36;;;26.26;37.75
58979;BME280;44763;50.464;30.612;2022-08-23T06:24:52;100323.02;;;26.32;37.46
58979;BME280;44763;50.464;30.612;2022-08-23T06:27:20;100337.41;;;26.38;37.46
58979;BME280;44763;50.464;30.612;2022-08-23T06:29:47;100325.52;;;26.48;36.81
58979;BME280;44763;50.464;30.612;2022-08-23T06:32:32;100322.12;;;26.56;36.86
58979;BME280;44763;50.464;30.612;2022-08-23T06:35:04;100324.11;;;26.72;36.30
58979;BME280;44763;50.464;30.612;2022-08-23T06:37:43;100347.39;;;26.88;36.15
58979;BME280;44763;50.464;30.612;2022-08-23T06:40:28;100324.91;;;27.08;35.86
58979;BME280;44763;50.464;30.612;2022-08-23T06:43:00;100338.75;;;27.14;35.11
58979;BME280;44763;50.464;30.612;2022-08-23T06:45:28;100339.09;;;27.10;35.00
58979;BME280;44763;50.464;30.612;2022-08-23T06:47:55;100349.27;;;26.90;35.30
58979;BME280;44763;50.464;30.612;2022-08-23T06:50:23;100354.48;;;26.70;35.67
58979;BME280;44763;50.464;30.612;2022-08-23T06:52:51;100348.20;;;26.70;35.78
58979;BME280;44763;50.464;30.612;2022-08-23T06:55:25;100350.23;;;26.80;35.40
58979;BME280;44763;50.464;30.612;2022-08-23T06:57:52;100354.30;;;26.83;35.64
58979;BME280;44763;50.464;30.612;2022-08-23T07:00:37;100361.96;;;27.00;35.10
58979;BME280;44763;50.464;30.612;2022-08-23T07:03:14;100361.55;;;27.09;34.77
58979;BME280;44763;50.464;30.612;2022-08-23T07:05:45;100308.09;;;26.82;34.94
58979;BME280;44763;50.464;30.612;2022-08-23T07:08:13;100364.62;;;27.05;35.12
58979;BME280;44763;50.464;30.612;2022-08-23T07:10:40;100349.88;;;27.04;35.00
58979;BME280;44763;50.464;30.612;2022-08-23T07:13:08;100355.70;;;26.97;35.65
58979;BME280;44763;50.464;30.612;2022-08-23T07:15:34;100365.50;;;27.00;35.28
58979;BME280;44763;50.464;30.612;2022-08-23T07:18:02;100363.15;;;27.10;35.30
58979;BME280;44763;50.464;30.612;2022-08-23T07:20:30;100366.32;;;27.17;35.05
58979;BME280;44763;50.464;30.612;2022-08-23T07:22:57;100355.86;;;27.22;35.08
58979;BME280;44763;50.464;30.612;2022-08-23T07:25:24;100360.40;;;27.29;35.24
58979;BME280;44763;50.464;30.612;2022-08-23T07:27:53;100369.69;;;27.31;34.93
58979;BME280;44763;50.464;30.612;2022-08-23T07:30:20;100374.02;;;27.15;34.93
58979;BME280;44763;50.464;30.612;2022-08-23T07:32:46;100376.08;;;27.07;35.18
58979;BME280;44763;50.464;30.612;2022-08-23T07:35:17;100364.30;;;27.07;35.55
58979;BME280;44763;50.464;30.612;2022-08-23T07:37:43;100345.47;;;26.70;35.42
58979;BME280;44763;50.464;30.612;2022-08-23T07:40:11;100376.73;;;26.99;34.90
58979;BME280;44763;50.464;30.612;2022-08-23T07:42:38;100385.77;;;26.99;34.86
58979;BME280;44763;50.464;30.612;2022-08-23T07:45:05;100384.58;;;27.06;34.88
58979;BME280;44763;50.464;30.612;2022-08-23T07:47:34;100371.75;;;27.04;34.85
58979;BME280;44763;50.464;30.612;2022-08-23T07:50:00;100376.71;;;27.02;34.84
58979;BME280;44763;50.464;30.612;2022-08-23T07:52:27;100369.45;;;27.11;34.54
58979;BME280;44763;50.464;30.612;2022-08-23T07:54:54;100390.19;;;27.14;34.40
58979;BME280;44763;50.464;30.612;2022-08-23T07:57:39;100384.97;;;27.15;34.40
58979;BME280;44763;50.464;30.612;2022-08-23T08:00:07;100377.05;;;27.14;34.61
58979;BME280;44763;50.464;30.612;2022-08-23T08:02:42;100391.16;;;27.21;34.28
58979;BME280;44763;50.464;30.612;2022-08-23T08:05:10;100372.20;;;27.27;34.51
58979;BME280;44763;50.464;30.612;2022-08-23T08:07:37;100380.83;;;27.37;34.26
58979;BME280;44763;50.464;30.612;2022-08-23T08:10:05;100383.08;;;27.49;33.74
58979;BME280;44763;50.464;30.612;2022-08-23T08:12:33;100390.02;;;27.57;33.70
58979;BME280;44763;50.464;30.612;2022-08-23T08:15:02;100378.18;;;27.62;33.85
58979;BME280;44763;50.464;30.612;2022-08-23T08:17:31;100370.53;;;27.62;33.81
58979;BME280;44763;50.464;30.612;2022-08-23T08:19:58;100379.93;;;27.55;33.91
58979;BME280;44763;50.464;30.612;2022-08-23T08:22:40;100384.44;;;27.49;34.16
58979;BME280;44763;50.464;30.612;2022-08-23T08:25:09;100399.44;;;27.51;33.83
58979;BME280;44763;50.464;30.612;2022-08-23T08:27:37;100391.71;;;27.56;33.58
58979;BME280;44763;50.464;30.612;2022-08-23T08:30:06;100391.95;;;27.57;33.32
58979;BME280;44763;50.464;30.612;2022-08-23T08:32:35;100398.95;;;27.63;33.25
58979;BME280;44763;50.464;30.612;2022-08-23T08:35:03;100385.09;;;27.73;33.18
58979;BME280;44763;50.464;30.612;2022-08-23T08:37:30;100380.03;;;27.81;33.12
58979;BME280;44763;50.464;30.612;2022-08-23T08:39:58;100370.24;;;27.77;33.18
58979;BME280;44763;50.464;30.612;2022-08-23T08:42:53;100407.66;;;27.82;33.26
58979;BME280;44763;50.464;30.612;2022-08-23T08:45:26;100415.46;;;27.91;32.67
58979;BME280;44763;50.464;30.612;2022-08-23T08:48:07;100405.28;;;27.94;32.32
58979;BME280;44763;50.464;30.612;2022-08-23T08:50:53;100432.47;;;27.90;32.40
58979;BME280;44763;50.464;30.612;2022-08-23T08:53:25;100407.92;;;27.83;32.72
58979;BME280;44763;50.464;30.612;2022-08-23T08:56:16;100395.19;;;27.75;32.85
58979;BME280;44763;50.464;30.612;2022-08-23T08:58:52;100398.12;;;27.65;32.95
58979;BME280;44763;50.464;30.612;2022-08-23T09:01:21;100425.83;;;27.61;33.14
58979;BME280;44763;50.464;30.612;2022-08-23T09:03:51;100434.60;;;27.61;33.37
58979;BME280;44763;50.464;30.612;2022-08-23T09:06:27;100417.08;;;27.62;33.33
58979;BME280;44763;50.464;30.612;2022-08-23T09:12:19;100399.73;;;27.50;33.54
58979;BME280;44763;50.464;30.612;2022-08-23T09:17:44;100398.05;;;27.37;34.10
58979;BME280;44763;50.464;30.612;2022-08-23T09:20:20;100411.03;;;27.46;33.75
58979;BME280;44763;50.464;30.612;2022-08-23T09:22:53;100394.27;;;27.50;32.42
58979;BME280;44763;50.464;30.612;2022-08-23T09:25:30;100397.41;;;27.60;32.25
58979;BME280;44763;50.464;30.612;2022-08-23T09:28:02;100416.58;;;27.73;31.83
58979;BME280;44763;50.464;30.612;2022-08-23T09:30:51;100403.14;;;27.91;31.18
58979;BME280;44763;50.464;30.612;2022-08-23T09:33:46;100411.68;;;28.03;30.57
58979;BME280;44763;50.464;30.612;2022-08-23T09:36:24;100402.09;;;28.03;30.91
58979;BME280;44763;50.464;30.612;2022-08-23T09:41:40;100406.86;;;27.98;30.43
58979;BME280;44763;50.464;30.612;2022-08-23T09:44:12;100408.47;;;27.99;28.96
58979;BME280;44763;50.464;30.612;2022-08-23T09:46:41;100404.15;;;27.95;28.19
58979;BME280;44763;50.464;30.612;2022-08-23T09:49:27;100408.02;;;27.94;28.21
58979;BME280;44763;50.464;30.612;2022-08-23T09:52:08;100394.05;;;27.93;28.42
58979;BME280;44763;50.464;30.612;2022-08-23T09:54:40;100407.81;;;28.04;28.34
58979;BME280;44763;50.464;30.612;2022-08-23T09:57:09;100425.97;;;28.14;28.40
58979;BME280;44763;50.464;30.612;2022-08-23T09:59:47;100399.91;;;28.17;28.22
58979;BME280;44763;50.464;30.612;2022-08-23T10:02:24;100403.55;;;28.12;28.35
58979;BME280;44763;50.464;30.612;2022-08-23T10:07:40;100397.33;;;28.09;28.86
58979;BME280;44763;50.464;30.612;2022-08-23T10:12:51;100385.80;;;28.09;29.19
58979;BME280;44763;50.464;30.612;2022-08-23T10:29:41;100375.75;;;28.94;26.78
58979;BME280;44763;50.464;30.612;2022-08-23T10:32:20;100350.59;;;29.15;25.33
58979;BME280;44763;50.464;30.612;2022-08-23T10:35:16;100393.16;;;29.35;23.49
58979;BME280;44763;50.464;30.612;2022-08-23T10:38:05;100412.75;;;29.53;22.87
58979;BME280;44763;50.464;30.612;2022-08-23T10:46:24;100387.15;;;29.55;22.87
58979;BME280;44763;50.464;30.612;2022-08-23T10:48:57;100386.27;;;29.57;24.34
58979;BME280;44763;50.464;30.612;2022-08-23T10:51:38;100384.41;;;29.55;25.17
58979;BME280;44763;50.464;30.612;2022-08-23T10:54:12;100401.12;;;29.67;25.32
58979;BME280;44763;50.464;30.612;2022-08-23T10:56:44;100397.50;;;29.81;24.26
58979;BME280;44763;50.464;30.612;2022-08-23T10:59:22;100364.18;;;29.94;23.49
58979;BME280;44763;50.464;30.612;2022-08-23T11:04:55;100395.52;;;30.13;22.20
58979;BME280;44763;50.464;30.612;2022-08-23T11:07:39;100410.50;;;30.18;21.87
58979;BME280;44763;50.464;30.612;2022-08-23T11:15:54;100397.63;;;30.36;21.85
58979;BME280;44763;50.464;30.612;2022-08-23T11:18:46;100381.06;;;30.47;21.90
58979;BME280;44763;50.464;30.612;2022-08-23T11:32:26;100365.20;;;30.35;21.90
58979;BME280;44763;50.464;30.612;2022-08-23T11:35:21;100392.72;;;30.24;22.09
58979;BME280;44763;50.464;30.612;2022-08-23T11:37:50;100375.48;;;30.21;22.39
58979;BME280;44763;50.464;30.612;2022-08-23T11:40:40;100380.09;;;30.23;22.63
58979;BME280;44763;50.464;30.612;2022-08-23T11:43:20;100376.41;;;30.27;22.62
58979;BME280;44763;50.464;30.612;2022-08-23T11:45:54;100380.33;;;30.35;22.06
58979;BME280;44763;50.464;30.612;2022-08-23T11:48:44;100388.91;;;30.42;21.95
58979;BME280;44763;50.464;30.612;2022-08-23T11:51:32;100395.96;;;30.46;21.89
58979;BME280;44763;50.464;30.612;2022-08-23T12:03:13;100349.20;;;30.72;21.76
58979;BME280;44763;50.464;30.612;2022-08-23T12:16:32;100357.66;;;30.93;22.63
58979;BME280;44763;50.464;30.612;2022-08-23T12:19:05;100363.23;;;30.99;22.21
58979;BME280;44763;50.464;30.612;2022-08-23T12:21:50;100372.28;;;31.00;22.35
58979;BME280;44763;50.464;30.612;2022-08-23T12:24:24;100356.73;;;31.04;22.50
58979;BME280;44763;50.464;30.612;2022-08-23T12:27:24;100376.42;;;31.09;22.32
58979;BME280;44763;50.464;30.612;2022-08-23T12:30:00;100386.85;;;31.09;22.55
58979;BME280;44763;50.464;30.612;2022-08-23T12:38:59;100378.02;;;31.18;22.47
58979;BME280;44763;50.464;30.612;2022-08-23T12:41:28;100378.27;;;31.19;22.46
58979;BME280;44763;50.464;30.612;2022-08-23T12:44:08;100384.26;;;31.21;22.39
58979;BME280;44763;50.464;30.612;2022-08-23T12:46:41;100372.98;;;31.20;22.25
58979;BME280;44763;50.464;30.612;2022-08-23T12:49:21;100398.25;;;31.22;21.80
58979;BME280;44763;50.464;30.612;2022-08-23T12:51:51;100396.45;;;31.27;21.79
58979;BME280;44763;50.464;30.612;2022-08-23T12:54:21;100399.69;;;31.29;21.28
58979;BME280;44763;50.464;30.612;2022-08-23T12:56:52;100421.01;;;31.26;21.35
58979;BME280;44763;50.464;30.612;2022-08-23T12:59:35;100418.48;;;31.27;21.27
58979;BME280;44763;50.464;30.612;2022-08-23T13:02:25;100392.33;;;31.27;21.33
58979;BME280;44763;50.464;30.612;2022-08-23T13:04:57;100393.47;;;31.26;21.37
58979;BME280;44763;50.464;30.612;2022-08-23T13:07:26;100435.09;;;31.24;21.65
58979;BME280;44763;50.464;30.612;2022-08-23T13:09:52;100399.30;;;31.24;21.91
58979;BME280;44763;50.464;30.612;2022-08-23T13:12:22;100402.86;;;31.24;21.94
58979;BME280;44763;50.464;30.612;2022-08-23T13:14:52;100414.13;;;31.26;21.79
58979;BME280;44763;50.464;30.612;2022-08-23T13:22:43;100446.03;;;31.09;22.60
58979;BME280;44763;50.464;30.612;2022-08-23T13:25:39;100402.47;;;31.11;22.41
58979;BME280;44763;50.464;30.612;2022-08-23T13:28:26;100430.16;;;31.15;21.62
58979;BME280;44763;50.464;30.612;2022-08-23T13:31:05;100421.17;;;31.20;21.70
58979;BME280;44763;50.464;30.612;2022-08-23T13:33:33;100411.79;;;31.21;22.04
58979;BME280;44763;50.464;30.612;2022-08-23T13:36:14;100400.77;;;31.21;22.22
58979;BME280;44763;50.464;30.612;2022-08-23T13:38:43;100410.66;;;31.14;22.41
58979;BME280;44763;50.464;30.612;2022-08-23T13:41:25;100425.55;;;31.13;22.59
58979;BME280;44763;50.464;30.612;2022-08-23T13:43:55;100399.49;;;31.10;22.72
58979;BME280;44763;50.464;30.612;2022-08-23T13:46:26;100404.33;;;31.13;22.90
58979;BME280;44763;50.464;30.612;2022-08-23T13:49:25;100457.69;;;31.15;22.60
58979;BME280;44763;50.464;30.612;2022-08-23T13:51:42;100411.69;;;31.15;22.44
58979;BME280;44763;50.464;30.612;2022-08-23T13:54:27;100411.78;;;31.13;22.47
58979;BME280;44763;50.464;30.612;2022-08-23T13:57:01;100425.55;;;31.13;22.46
58979;BME280;44763;50.464;30.612;2022-08-23T13:59:39;100393.31;;;31.13;22.44
58979;BME280;44763;50.464;30.612;2022-08-23T14:02:12;100387.17;;;31.16;22.65
58979;BME280;44763;50.464;30.612;2022-08-23T14:04:40;100406.92;;;31.18;22.68
58979;BME280;44763;50.464;30.612;2022-08-23T14:07:11;100387.55;;;31.21;22.76
58979;BME280;44763;50.464;30.612;2022-08-23T14:09:38;100411.38;;;31.26;22.62
58979;BME280;44763;50.464;30.612;2022-08-23T14:12:14;100413.39;;;31.31;22.80
58979;BME280;44763;50.464;30.612;2022-08-23T14:14:40;100405.61;;;31.33;22.75
58979;BME280;44763;50.464;30.612;2022-08-23T14:17:08;100413.45;;;31.29;22.79
58979;BME280;44763;50.464;30.612;2022-08-23T14:19:35;100414.83;;;31.29;22.78
58979;BME280;44763;50.464;30.612;2022-08-23T14:22:03;100398.66;;;31.27;22.47
58979;BME280;44763;50.464;30.612;2022-08-23T14:24:30;100404.65;;;31.29;22.68
58979;BME280;44763;50.464;30.612;2022-08-23T14:26:56;100380.66;;;31.30;22.64
58979;BME280;44763;50.464;30.612;2022-08-23T14:29:24;100354.97;;;31.08;22.84
58979;BME280;44763;50.464;30.612;2022-08-23T14:31:53;100398.09;;;31.28;22.99